SELT

Cotopaxi International Airport

Airport
ICAO code
SELT
IATA Code
LTX
Summary
ICAO Region
CARSAM
ICAO Territory
Location

Latacunga, Cotopaxi

Serving
Latacunga
Elevation
9205 ft
Coordinates
0° 54' 25" S , 78° 36' 57" W
Metar
Observation
SELT 262200Z 11011KT 9999 BKN033 SCT200 14/04 Q1027
Station
Latacunga
Date/Time
2022-09-26 22:00:00
Wind direction
110°
Wind speed
11 kts
Lowest cloud amount
broken clouds
Temperature
14°C
Dew point
4°C
Humidity
50%
QNH
1027 hPa
Weather condition
n/a

Runways

Designator Length Width Surface Rops
18/36 3693 45 ASP Yes/Yes

Airport map

Aerial View

SKYbrary Partners:

Safety knowledge contributed by: